createdAt,value
2022-10-15T00:00:40.286Z,42.65
2022-10-15T00:03:15.696Z,42.30
2022-10-15T00:05:49.580Z,43.50
2022-10-15T00:08:25.447Z,43.55
2022-10-15T00:11:04.610Z,43.38
2022-10-15T00:13:38.531Z,44.33
2022-10-15T00:16:16.109Z,43.17
2022-10-15T00:18:51.906Z,42.60
2022-10-15T00:21:25.972Z,43.47
2022-10-15T00:23:59.760Z,42.45
2022-10-15T00:26:36.378Z,41.15
2022-10-15T00:29:13.269Z,43.72
2022-10-15T00:31:47.420Z,42.20
2022-10-15T00:34:22.469Z,41.88
2022-10-15T00:36:59.190Z,42.67
2022-10-15T00:39:32.758Z,41.58
2022-10-15T00:42:07.965Z,41.80
2022-10-15T00:45:02.484Z,41.97
2022-10-15T00:47:41.766Z,40.83
2022-10-15T00:50:19.990Z,41.88
2022-10-15T00:53:02.238Z,41.20
2022-10-15T00:55:39.678Z,42.35
2022-10-15T00:58:17.137Z,41.97
2022-10-15T01:00:54.555Z,42.53
2022-10-15T01:03:28.781Z,42.00
2022-10-15T01:06:09.397Z,40.80
2022-10-15T01:08:42.971Z,38.92
2022-10-15T01:14:13.950Z,38.80
2022-10-15T01:16:57.861Z,38.78
2022-10-15T01:20:25.329Z,39.80
2022-10-15T01:23:16.864Z,39.78
2022-10-15T01:26:08.472Z,40.55
2022-10-15T01:28:57.290Z,41.47
2022-10-15T01:31:46.839Z,39.97
2022-10-15T01:34:26.560Z,38.72
2022-10-15T01:37:08.594Z,40.47
2022-10-15T01:39:46.530Z,38.72
2022-10-15T01:42:27.379Z,41.90
2022-10-15T01:45:08.586Z,39.40
2022-10-15T01:47:57.970Z,41.05
2022-10-15T01:50:33.869Z,39.30
2022-10-15T01:53:09.546Z,40.92
2022-10-15T01:55:48.912Z,38.28
2022-10-15T01:58:23.374Z,39.42
2022-10-15T02:00:58.723Z,40.97
2022-10-15T02:03:44.264Z,38.80
2022-10-15T02:06:33.350Z,39.10
2022-10-15T02:09:17.873Z,39.42
2022-10-15T02:12:02.409Z,39.22
2022-10-15T02:14:42.954Z,37.70
2022-10-15T02:17:19.685Z,38.72
2022-10-15T02:20:01.596Z,39.35
2022-10-15T02:22:42.915Z,38.65
2022-10-15T02:25:20.465Z,39.65
2022-10-15T02:27:58.280Z,38.70
2022-10-15T02:30:35.754Z,38.42
2022-10-15T02:33:11.671Z,37.08
2022-10-15T02:35:49.880Z,38.92
2022-10-15T02:38:26.009Z,39.05
2022-10-15T02:41:00.332Z,37.55
2022-10-15T02:43:34.023Z,38.85
2022-10-15T02:46:10.557Z,38.17
2022-10-15T02:48:44.335Z,37.20
2022-10-15T02:51:19.209Z,36.42
2022-10-15T02:53:52.768Z,36.28
2022-10-15T02:56:26.614Z,35.92
2022-10-15T02:59:00.479Z,39.05
2022-10-15T03:01:35.890Z,38.45
2022-10-15T03:04:12.758Z,37.35
2022-10-15T03:06:47.933Z,36.47
2022-10-15T03:09:21.558Z,37.28
2022-10-15T03:11:55.107Z,37.58
2022-10-15T03:17:05.647Z,36.17
2022-10-15T03:19:41.560Z,37.53
2022-10-15T03:22:16.457Z,37.00
2022-10-15T03:24:56.373Z,35.67
2022-10-15T03:27:32.852Z,34.97
2022-10-15T03:30:07.634Z,35.30
2022-10-15T03:32:41.185Z,35.28
2022-10-15T03:35:14.709Z,35.72
2022-10-15T03:37:49.673Z,35.42
2022-10-15T03:40:23.991Z,37.45
2022-10-15T03:43:01.736Z,36.50
2022-10-15T03:48:22.123Z,33.60
2022-10-15T03:50:55.686Z,35.67
2022-10-15T03:53:30.920Z,36.28
2022-10-15T03:56:06.050Z,35.53
2022-10-15T03:58:42.857Z,35.30
2022-10-15T04:01:20.863Z,35.80
2022-10-15T04:03:54.935Z,36.88
2022-10-15T04:06:34.346Z,35.80
2022-10-15T04:09:15.862Z,37.00
2022-10-15T04:11:49.373Z,36.92
2022-10-15T04:14:22.873Z,35.92
2022-10-15T04:16:59.168Z,36.45
2022-10-15T04:19:34.989Z,35.15
2022-10-15T04:22:10.814Z,35.03
2022-10-15T04:24:52.077Z,37.33
2022-10-15T04:27:34.405Z,37.38
2022-10-15T04:30:17.368Z,37.25
2022-10-15T04:33:02.676Z,37.28
2022-10-15T04:35:36.381Z,35.67
2022-10-15T04:38:23.066Z,35.47
2022-10-15T04:41:09.656Z,36.58
2022-10-15T04:44:06.607Z,34.75
2022-10-15T04:46:40.362Z,37.45
2022-10-15T04:49:39.237Z,36.40
2022-10-15T04:52:22.988Z,35.97
2022-10-15T04:55:03.443Z,36.80
2022-10-15T04:57:38.646Z,36.65
2022-10-15T05:00:14.859Z,38.90
2022-10-15T05:03:11.694Z,38.55
2022-10-15T05:06:09.861Z,36.33
2022-10-15T05:08:45.753Z,39.53
2022-10-15T05:11:26.949Z,38.58
2022-10-15T05:14:02.998Z,36.33
2022-10-15T05:16:38.582Z,44.10
2022-10-15T05:19:13.237Z,37.17
2022-10-15T05:24:30.075Z,37.33
2022-10-15T05:27:29.789Z,37.15
2022-10-15T05:30:05.349Z,39.38
2022-10-15T05:32:54.170Z,38.70
2022-10-15T05:35:29.149Z,36.75
2022-10-15T05:38:07.392Z,37.42
2022-10-15T05:40:40.893Z,37.40
2022-10-15T05:43:21.831Z,35.92
2022-10-15T05:48:31.157Z,35.83
2022-10-15T05:51:05.299Z,37.22
2022-10-15T05:53:43.428Z,37.15
2022-10-15T05:56:18.018Z,36.47
2022-10-15T06:01:32.480Z,34.92
2022-10-15T06:04:06.308Z,34.78
2022-10-15T06:06:41.724Z,34.70
2022-10-15T06:09:15.461Z,39.40
2022-10-15T06:11:48.983Z,37.83
2022-10-15T06:14:25.214Z,36.08
2022-10-15T06:19:40.974Z,37.03
2022-10-15T06:22:14.523Z,35.40
2022-10-15T06:24:47.992Z,39.45
2022-10-15T06:27:21.691Z,36.90
2022-10-15T06:29:55.483Z,36.58
2022-10-15T06:32:30.370Z,36.00
2022-10-15T06:35:07.514Z,37.47
2022-10-15T06:37:44.562Z,37.03
2022-10-15T06:40:18.407Z,35.72
2022-10-15T06:42:51.917Z,35.30
2022-10-15T06:45:29.532Z,33.88
2022-10-15T06:48:11.609Z,33.90
2022-10-15T06:50:45.258Z,34.90
2022-10-15T06:53:21.719Z,32.90
2022-10-15T06:55:58.517Z,32.90
2022-10-15T06:58:34.658Z,34.88
2022-10-15T07:01:11.012Z,32.83
2022-10-15T07:04:00.353Z,34.15
2022-10-15T07:06:39.188Z,30.33
2022-10-15T07:09:14.270Z,30.80
2022-10-15T07:11:47.891Z,31.50
2022-10-15T07:17:05.591Z,31.52
2022-10-15T07:19:43.796Z,31.38
2022-10-15T07:22:17.370Z,33.60
2022-10-15T07:27:27.361Z,30.03
2022-10-15T07:30:01.766Z,30.98
2022-10-15T07:35:18.439Z,28.08
2022-10-15T07:38:04.136Z,28.77
2022-10-15T07:40:40.838Z,30.25
2022-10-15T07:43:14.501Z,30.60
2022-10-15T07:45:50.836Z,29.27
2022-10-15T07:48:26.445Z,30.30
2022-10-15T07:51:09.389Z,28.15
2022-10-15T07:53:44.199Z,27.05
2022-10-15T07:56:20.145Z,28.45
2022-10-15T07:58:53.872Z,26.02
2022-10-15T08:01:27.444Z,26.70
2022-10-15T08:04:03.374Z,26.77
2022-10-15T08:06:42.628Z,25.88
2022-10-15T08:09:17.574Z,24.98
2022-10-15T08:11:58.437Z,25.38
2022-10-15T08:14:34.553Z,26.75
2022-10-15T08:17:13.914Z,26.45
2022-10-15T08:19:49.200Z,30.85
2022-10-15T08:22:24.967Z,26.55
2022-10-15T08:25:03.585Z,25.23
2022-10-15T08:27:39.355Z,24.63
2022-10-15T08:30:17.423Z,24.45
2022-10-15T08:32:54.015Z,24.42
2022-10-15T08:35:44.246Z,25.70
2022-10-15T08:38:21.042Z,24.40
2022-10-15T08:40:58.219Z,24.60
2022-10-15T08:43:38.100Z,23.23
2022-10-15T08:46:17.973Z,23.67
2022-10-15T08:49:01.328Z,24.10
2022-10-15T08:51:44.420Z,24.27
2022-10-15T08:54:32.971Z,23.23
2022-10-15T08:57:20.662Z,24.08
2022-10-15T09:00:05.649Z,23.27
2022-10-15T09:02:51.511Z,23.08
2022-10-15T09:05:41.098Z,19.98
2022-10-15T09:08:30.797Z,22.73
2022-10-15T09:11:17.881Z,23.08
2022-10-15T09:13:53.717Z,22.48
2022-10-15T09:16:37.720Z,21.80
2022-10-15T09:19:21.458Z,19.95
2022-10-15T09:21:55.773Z,21.85
2022-10-15T09:24:31.348Z,20.73
2022-10-15T09:27:11.576Z,22.00
2022-10-15T09:30:06.873Z,21.13
2022-10-15T09:32:50.576Z,20.00
2022-10-15T09:35:35.056Z,21.13
2022-10-15T09:38:32.653Z,21.55
2022-10-15T09:41:23.704Z,19.65
2022-10-15T09:44:04.523Z,20.10
2022-10-15T09:46:46.464Z,19.85
2022-10-15T09:49:25.586Z,18.48
2022-10-15T09:52:09.950Z,19.70
2022-10-15T09:54:54.324Z,17.55
2022-10-15T09:57:32.076Z,17.85
2022-10-15T10:00:14.888Z,17.65
2022-10-15T10:03:07.284Z,18.40
2022-10-15T10:05:41.082Z,17.17
2022-10-15T10:08:22.033Z,18.58
2022-10-15T10:10:57.611Z,17.77
2022-10-15T10:13:34.140Z,16.63
2022-10-15T10:16:11.968Z,17.08
2022-10-15T10:18:51.167Z,17.75
2022-10-15T10:21:26.802Z,22.25
2022-10-15T10:24:21.437Z,20.40
2022-10-15T10:26:58.331Z,17.08
2022-10-15T10:29:40.816Z,16.23
2022-10-15T10:32:22.388Z,17.33
2022-10-15T10:34:59.370Z,16.48
2022-10-15T10:37:43.820Z,16.17
2022-10-15T10:40:30.155Z,16.42
2022-10-15T10:43:24.085Z,16.23
2022-10-15T10:46:03.229Z,15.43
2022-10-15T10:48:42.786Z,16.30
2022-10-15T10:51:21.528Z,15.75
2022-10-15T10:54:03.859Z,14.85
2022-10-15T10:56:44.012Z,16.52
2022-10-15T10:59:22.422Z,16.13
2022-10-15T11:01:58.529Z,17.50
2022-10-15T11:04:36.464Z,16.83
2022-10-15T11:07:20.329Z,16.73
2022-10-15T11:10:02.539Z,16.42
2022-10-15T11:13:00.207Z,17.05
2022-10-15T11:15:46.603Z,16.75
2022-10-15T11:18:58.255Z,17.35
2022-10-15T11:21:49.082Z,17.58
2022-10-15T11:24:33.526Z,19.48
2022-10-15T11:27:39.864Z,18.30
2022-10-15T11:30:31.369Z,17.30
2022-10-15T11:33:23.260Z,16.77
2022-10-15T11:36:11.864Z,17.27
2022-10-15T11:38:54.060Z,16.60
2022-10-15T11:41:40.751Z,16.48
2022-10-15T11:44:40.844Z,16.13
2022-10-15T11:47:30.314Z,17.15
2022-10-15T11:50:23.818Z,17.58
2022-10-15T11:53:35.790Z,16.50
2022-10-15T11:56:16.215Z,16.17
2022-10-15T11:58:53.993Z,16.58
2022-10-15T12:01:35.745Z,16.70
2022-10-15T12:04:16.007Z,16.80
2022-10-15T12:06:55.771Z,17.83
2022-10-15T12:09:33.309Z,16.75
2022-10-15T12:12:18.947Z,16.27
2022-10-15T12:15:09.616Z,17.48
2022-10-15T12:17:52.750Z,18.35
2022-10-15T12:20:31.823Z,14.32
2022-10-15T12:23:25.166Z,14.75
2022-10-15T12:25:59.217Z,16.85
2022-10-15T12:28:40.940Z,12.30
2022-10-15T12:31:23.762Z,13.85
2022-10-15T12:33:58.891Z,13.35
2022-10-15T12:36:33.541Z,13.88
2022-10-15T12:42:27.798Z,13.82
2022-10-15T12:45:05.068Z,15.07
2022-10-15T12:47:49.747Z,13.80
2022-10-15T12:50:24.706Z,13.95
2022-10-15T12:53:02.893Z,14.75
2022-10-15T12:55:38.066Z,15.30
2022-10-15T12:58:34.201Z,15.20
2022-10-15T13:01:51.070Z,14.82
2022-10-15T13:04:25.096Z,14.68
2022-10-15T13:07:05.390Z,14.30
2022-10-15T13:09:39.222Z,13.77
2022-10-15T13:12:25.326Z,13.75
2022-10-15T13:15:05.349Z,13.60
2022-10-15T13:17:41.257Z,13.68
2022-10-15T13:20:40.206Z,13.63
2022-10-15T13:23:30.168Z,13.18
2022-10-15T13:26:20.648Z,15.00
2022-10-15T13:28:55.414Z,28.95
2022-10-15T13:31:31.704Z,14.88
2022-10-15T13:34:17.603Z,14.10
2022-10-15T13:36:54.261Z,14.50
2022-10-15T13:42:17.191Z,17.42
2022-10-15T13:45:04.423Z,15.60
2022-10-15T13:47:42.496Z,14.05
2022-10-15T13:50:21.591Z,14.68
2022-10-15T13:53:00.519Z,21.10
2022-10-15T13:55:38.679Z,14.75
2022-10-15T13:58:27.532Z,14.98
2022-10-15T14:01:11.001Z,15.85
2022-10-15T14:03:50.023Z,16.65
2022-10-15T14:06:27.854Z,15.70
2022-10-15T14:09:20.696Z,16.15
2022-10-15T14:11:57.914Z,15.02
2022-10-15T14:14:36.662Z,15.27
2022-10-15T14:17:17.554Z,15.75
2022-10-15T14:20:21.667Z,16.20
2022-10-15T14:22:52.711Z,21.13
2022-10-15T14:25:31.131Z,17.88
2022-10-15T14:28:04.897Z,17.45
2022-10-15T14:30:44.555Z,18.65
2022-10-15T14:33:46.591Z,18.08
2022-10-15T14:39:40.097Z,19.40
2022-10-15T14:42:29.143Z,18.40
2022-10-15T14:45:20.283Z,17.15
2022-10-15T14:48:04.091Z,19.05
2022-10-15T14:53:23.239Z,15.95
2022-10-15T14:56:05.016Z,16.90
2022-10-15T14:58:40.216Z,16.42
2022-10-15T15:01:18.059Z,16.75
2022-10-15T15:03:56.044Z,16.20
2022-10-15T15:06:39.376Z,14.98
2022-10-15T15:09:12.929Z,14.70
2022-10-15T15:14:28.671Z,15.05
2022-10-15T15:17:02.147Z,15.48
2022-10-15T15:22:17.415Z,15.13
2022-10-15T15:24:50.940Z,16.70
2022-10-15T15:27:30.775Z,16.02
2022-10-15T15:30:06.562Z,15.35
2022-10-15T15:32:40.178Z,15.63
2022-10-15T15:35:22.735Z,14.65
2022-10-15T15:40:30.611Z,15.23
2022-10-15T15:43:21.157Z,15.50
2022-10-15T15:46:06.279Z,16.27
2022-10-15T15:48:54.929Z,17.25
2022-10-15T15:51:32.413Z,15.68
2022-10-15T15:54:09.978Z,14.75
2022-10-15T15:59:26.126Z,15.32
2022-10-15T16:02:00.037Z,15.52
2022-10-15T16:04:33.748Z,15.90
2022-10-15T16:07:10.285Z,13.80
2022-10-15T16:09:46.867Z,14.55
2022-10-15T16:12:20.737Z,16.70
2022-10-15T16:14:55.988Z,17.67
2022-10-15T16:17:29.882Z,14.55
2022-10-15T16:20:03.481Z,15.05
2022-10-15T16:22:37.217Z,16.15
2022-10-15T16:25:11.632Z,16.58
2022-10-15T16:27:48.987Z,16.17
2022-10-15T16:30:24.346Z,15.48
2022-10-15T16:32:58.035Z,15.82
2022-10-15T16:35:31.811Z,15.68
2022-10-15T16:38:05.451Z,16.15
2022-10-15T16:40:40.374Z,16.60
2022-10-15T16:43:14.143Z,15.95
2022-10-15T16:45:57.966Z,17.15
2022-10-15T16:48:33.211Z,17.35
2022-10-15T16:51:09.753Z,15.60
2022-10-15T16:53:45.401Z,16.75
2022-10-15T16:56:23.363Z,16.10
2022-10-15T16:59:00.199Z,15.65
2022-10-15T17:01:48.069Z,15.25
2022-10-15T17:04:29.275Z,14.07
2022-10-15T17:07:03.017Z,14.93
2022-10-15T17:09:39.688Z,13.82
2022-10-15T17:12:13.313Z,15.63
2022-10-15T17:17:25.191Z,13.20
2022-10-15T17:20:07.492Z,15.55
2022-10-15T17:22:41.154Z,14.43
2022-10-15T17:25:25.454Z,13.85
2022-10-15T17:28:02.282Z,15.10
2022-10-15T17:30:39.714Z,14.10
2022-10-15T17:33:17.819Z,13.93
2022-10-15T17:35:51.474Z,13.90
2022-10-15T17:38:25.129Z,14.10
2022-10-15T17:43:39.310Z,12.95
2022-10-15T17:46:20.479Z,12.98
2022-10-15T17:48:56.532Z,13.20
2022-10-15T17:51:32.322Z,13.82
2022-10-15T17:54:11.696Z,14.50
2022-10-15T17:56:48.417Z,13.95
2022-10-15T17:59:24.771Z,13.32
2022-10-15T18:02:00.982Z,14.15
2022-10-15T18:04:41.616Z,13.65
2022-10-15T18:07:20.230Z,13.88
2022-10-15T18:09:53.866Z,13.98
2022-10-15T18:15:03.773Z,14.23
2022-10-15T18:17:38.010Z,13.73
2022-10-15T18:20:14.670Z,13.10
2022-10-15T18:22:49.335Z,13.40
2022-10-15T18:27:56.030Z,13.15
2022-10-15T18:33:02.759Z,13.25
2022-10-15T18:38:26.504Z,14.48
2022-10-15T18:41:03.077Z,16.17
2022-10-15T18:43:36.763Z,17.05
2022-10-15T18:46:13.760Z,17.15
2022-10-15T18:48:50.068Z,17.42
2022-10-15T18:51:30.614Z,16.88
2022-10-15T18:54:13.521Z,16.38
2022-10-15T18:56:47.125Z,16.27
2022-10-15T18:59:24.589Z,15.07
2022-10-15T19:01:58.915Z,15.38
2022-10-15T19:04:35.378Z,15.95
2022-10-15T19:07:10.344Z,15.60
2022-10-15T19:09:44.047Z,16.30
2022-10-15T19:12:18.277Z,16.13
2022-10-15T19:14:51.932Z,14.00
2022-10-15T19:17:26.810Z,15.35
2022-10-15T19:20:06.510Z,14.57
2022-10-15T19:22:45.590Z,16.15
2022-10-15T19:25:21.344Z,15.70
2022-10-15T19:27:56.498Z,15.02
2022-10-15T19:30:30.085Z,14.63
2022-10-15T19:35:41.810Z,12.98
2022-10-15T19:38:19.742Z,14.20
2022-10-15T19:40:53.790Z,13.18
2022-10-15T19:43:27.314Z,24.52
2022-10-15T19:48:38.090Z,12.75
2022-10-15T19:51:11.979Z,13.60
2022-10-15T19:53:47.039Z,12.10
2022-10-15T19:56:20.738Z,12.70
2022-10-15T19:58:58.017Z,14.43
2022-10-15T20:01:31.990Z,13.43
2022-10-15T20:04:07.307Z,12.80
2022-10-15T20:06:41.186Z,13.20
2022-10-15T20:11:55.752Z,12.13
2022-10-15T20:14:29.368Z,13.30
2022-10-15T20:19:36.182Z,11.67
2022-10-15T20:24:44.386Z,13.13
2022-10-15T20:27:17.982Z,12.30
2022-10-15T20:32:34.264Z,12.35
2022-10-15T20:37:42.518Z,11.63
2022-10-15T20:40:17.436Z,12.30
2022-10-15T20:42:50.936Z,12.73
2022-10-15T20:47:59.978Z,11.38
2022-10-15T20:50:37.025Z,10.80
2022-10-15T20:53:10.658Z,11.02
2022-10-15T20:55:48.521Z,10.88
2022-10-15T20:58:22.178Z,11.18
2022-10-15T21:03:30.087Z,10.77
2022-10-15T21:06:03.747Z,10.68
2022-10-15T21:08:37.605Z,10.93
2022-10-15T21:11:12.655Z,11.07
2022-10-15T21:13:46.166Z,10.23
2022-10-15T21:16:25.860Z,11.80
2022-10-15T21:19:01.746Z,11.82
2022-10-15T21:21:35.298Z,11.65
2022-10-15T21:24:08.884Z,11.93
2022-10-15T21:29:17.724Z,11.85
2022-10-15T21:31:56.027Z,13.20
2022-10-15T21:34:29.831Z,11.02
2022-10-15T21:37:05.146Z,12.77
2022-10-15T21:39:38.661Z,11.93
2022-10-15T21:44:47.039Z,12.98
2022-10-15T21:49:53.729Z,11.75
2022-10-15T21:55:00.621Z,10.57
2022-10-15T22:00:15.560Z,10.93
2022-10-15T22:02:51.906Z,10.45
2022-10-15T22:05:25.495Z,10.90
2022-10-15T22:07:59.226Z,11.35
2022-10-15T22:13:07.491Z,10.13
2022-10-15T22:15:41.294Z,10.20
2022-10-15T22:18:14.891Z,10.85
2022-10-15T22:23:26.840Z,9.70
2022-10-15T22:26:01.478Z,10.45
2022-10-15T22:31:11.596Z,17.92
2022-10-15T22:33:46.396Z,11.68
2022-10-15T22:36:22.177Z,9.80
2022-10-15T22:38:57.150Z,9.90
2022-10-15T22:41:33.725Z,10.25
2022-10-15T22:44:10.017Z,9.70
2022-10-15T22:46:46.330Z,10.23
2022-10-15T22:49:22.345Z,10.40
2022-10-15T22:51:57.675Z,10.23
2022-10-15T22:54:33.698Z,9.88
2022-10-15T22:57:07.342Z,9.95
2022-10-15T22:59:43.807Z,10.85
2022-10-15T23:02:21.210Z,10.32
2022-10-15T23:04:57.689Z,9.48
2022-10-15T23:07:38.313Z,9.98
2022-10-15T23:10:12.014Z,9.45
2022-10-15T23:12:45.515Z,9.23
2022-10-15T23:15:20.768Z,10.05
2022-10-15T23:17:54.228Z,10.52
2022-10-15T23:20:27.750Z,10.00
2022-10-15T23:23:01.833Z,10.50
2022-10-15T23:25:39.336Z,10.15
2022-10-15T23:28:12.871Z,10.30
2022-10-15T23:30:47.799Z,10.30
2022-10-15T23:33:21.326Z,10.43
2022-10-15T23:35:59.607Z,10.45
2022-10-15T23:38:33.103Z,10.90
2022-10-15T23:41:08.849Z,11.02
2022-10-15T23:43:42.477Z,10.20
2022-10-15T23:48:51.515Z,9.82
2022-10-15T23:51:26.707Z,11.20
2022-10-15T23:54:01.878Z,10.45
2022-10-15T23:56:36.398Z,11.07
2022-10-15T23:59:09.893Z,10.50
